createdAt,value
2017-03-26T00:00:37.129Z,99.99
2017-03-26T00:01:48.173Z,99.99
2017-03-26T00:02:59.358Z,99.99
2017-03-26T00:04:10.356Z,99.99
2017-03-26T00:05:21.350Z,99.99
2017-03-26T00:06:32.342Z,99.99
2017-03-26T00:07:43.344Z,99.99
2017-03-26T00:08:54.342Z,99.99
2017-03-26T00:10:05.327Z,99.99
2017-03-26T00:11:16.524Z,99.99
2017-03-26T00:12:27.514Z,99.99
2017-03-26T00:13:38.507Z,99.99
2017-03-26T00:14:49.502Z,99.99
2017-03-26T00:16:00.696Z,99.99
2017-03-26T00:17:11.685Z,99.99
2017-03-26T00:18:22.730Z,99.99
2017-03-26T00:19:33.778Z,99.99
2017-03-26T00:20:44.768Z,99.99
2017-03-26T00:21:55.761Z,99.99
2017-03-26T00:23:06.749Z,99.99
2017-03-26T00:24:17.742Z,99.99
2017-03-26T00:25:28.729Z,99.99
2017-03-26T00:26:39.722Z,99.99
2017-03-26T00:27:50.714Z,99.99
2017-03-26T00:29:01.709Z,99.99
2017-03-26T00:30:12.707Z,99.99
2017-03-26T00:31:23.696Z,99.99
2017-03-26T00:32:35.083Z,99.99
2017-03-26T00:33:46.086Z,99.99
2017-03-26T00:34:57.094Z,99.99
2017-03-26T00:36:08.092Z,99.99
2017-03-26T00:37:19.086Z,99.99
2017-03-26T00:38:30.097Z,99.99
2017-03-26T00:39:41.096Z,99.99
2017-03-26T00:40:52.088Z,99.99
2017-03-26T00:42:03.102Z,99.99
2017-03-26T00:43:14.144Z,99.99
2017-03-26T00:44:25.140Z,99.99
2017-03-26T00:45:36.137Z,99.99
2017-03-26T00:46:47.122Z,99.99
2017-03-26T00:47:58.109Z,99.99
2017-03-26T00:49:09.103Z,99.99
2017-03-26T00:50:20.121Z,99.99
2017-03-26T00:51:31.109Z,99.99
2017-03-26T00:52:42.299Z,99.99
2017-03-26T00:53:53.745Z,99.99
2017-03-26T00:55:04.745Z,99.99
2017-03-26T00:56:15.730Z,99.99
2017-03-26T00:57:26.728Z,99.99
2017-03-26T00:58:37.718Z,99.99
2017-03-26T00:59:48.912Z,99.99
2017-03-26T01:00:59.916Z,99.99
2017-03-26T01:02:10.949Z,99.99
2017-03-26T01:03:21.945Z,99.99
2017-03-26T01:04:32.935Z,99.99
2017-03-26T01:05:43.920Z,99.99
2017-03-26T01:06:54.906Z,99.99
2017-03-26T01:08:05.892Z,99.99
2017-03-26T01:09:16.883Z,99.99
2017-03-26T01:10:27.935Z,99.99
2017-03-26T01:11:38.917Z,99.99
2017-03-26T01:12:50.102Z,99.99
2017-03-26T01:14:01.096Z,99.99
2017-03-26T01:15:12.095Z,99.99
2017-03-26T01:16:23.091Z,99.99
2017-03-26T01:17:34.084Z,99.99
2017-03-26T01:18:45.076Z,99.99
2017-03-26T01:19:56.117Z,99.99
2017-03-26T01:21:07.112Z,99.99
2017-03-26T01:22:18.315Z,99.99
2017-03-26T01:23:29.510Z,99.99
2017-03-26T01:24:40.516Z,99.99
2017-03-26T01:25:51.907Z,99.99
2017-03-26T01:27:03.302Z,99.99
2017-03-26T01:28:14.287Z,99.99
2017-03-26T01:29:25.536Z,99.99
2017-03-26T01:30:36.779Z,99.99
2017-03-26T01:31:48.175Z,99.99
2017-03-26T01:32:59.166Z,99.99
2017-03-26T01:34:10.163Z,99.99
2017-03-26T01:35:21.355Z,99.99
2017-03-26T01:36:32.339Z,99.99
2017-03-26T01:37:43.532Z,99.99
2017-03-26T01:38:54.725Z,99.99
2017-03-26T01:40:05.707Z,99.99
2017-03-26T01:41:16.944Z,99.99
2017-03-26T01:42:28.130Z,99.99
2017-03-26T01:43:39.119Z,99.99
2017-03-26T01:44:50.121Z,99.99
2017-03-26T01:46:01.110Z,99.99
2017-03-26T01:47:12.096Z,99.99
2017-03-26T01:48:23.084Z,99.99
2017-03-26T01:49:34.079Z,99.99
2017-03-26T01:50:45.066Z,99.99
2017-03-26T01:51:56.269Z,99.99
2017-03-26T01:53:07.259Z,99.99
2017-03-26T01:54:18.261Z,99.99
2017-03-26T01:55:29.255Z,99.99
2017-03-26T01:56:40.249Z,99.99
2017-03-26T01:57:51.441Z,99.99
2017-03-26T01:59:02.489Z,99.99
2017-03-26T02:00:13.478Z,99.99
2017-03-26T02:01:24.461Z,99.99
2017-03-26T02:02:35.643Z,99.99
2017-03-26T02:03:46.638Z,99.99
2017-03-26T02:04:57.631Z,99.99
2017-03-26T02:06:08.821Z,99.99
2017-03-26T02:07:19.807Z,99.99
2017-03-26T02:08:30.858Z,99.99
2017-03-26T02:09:41.855Z,99.99
2017-03-26T02:10:52.847Z,99.99
2017-03-26T02:12:03.833Z,99.99
2017-03-26T02:13:14.830Z,99.99
2017-03-26T02:14:25.827Z,99.99
2017-03-26T02:15:36.814Z,99.99
2017-03-26T02:16:47.798Z,99.99
2017-03-26T02:17:58.997Z,99.99
2017-03-26T02:19:10.049Z,99.99
2017-03-26T02:20:21.242Z,99.99
2017-03-26T02:21:32.430Z,99.99
2017-03-26T02:22:43.410Z,99.99
2017-03-26T02:23:54.410Z,99.99
2017-03-26T02:25:05.407Z,99.99
2017-03-26T02:26:16.394Z,99.99
2017-03-26T02:27:27.383Z,99.99
2017-03-26T02:28:38.390Z,99.99
2017-03-26T02:29:49.628Z,99.99
2017-03-26T02:31:00.624Z,99.99
2017-03-26T02:32:11.606Z,99.99
2017-03-26T02:33:22.598Z,99.99
2017-03-26T02:34:33.586Z,99.99
2017-03-26T02:35:44.571Z,99.99
2017-03-26T02:36:55.552Z,99.99
2017-03-26T02:38:06.743Z,99.99
2017-03-26T02:39:17.738Z,99.99
2017-03-26T02:40:28.723Z,99.99
2017-03-26T02:41:39.757Z,99.99
2017-03-26T02:42:50.787Z,99.99
2017-03-26T02:44:01.995Z,99.99
2017-03-26T02:45:13.188Z,99.99
2017-03-26T02:46:24.174Z,99.99
2017-03-26T02:47:35.164Z,98.87
2017-03-26T02:48:46.164Z,99.99
2017-03-26T02:49:57.165Z,99.99
2017-03-26T02:51:08.435Z,96.59
2017-03-26T02:52:19.620Z,97.26
2017-03-26T02:53:30.601Z,99.99
2017-03-26T02:54:41.591Z,98.68
2017-03-26T02:55:52.586Z,96.5
2017-03-26T02:57:03.569Z,99.99
2017-03-26T02:58:14.626Z,98.02
2017-03-26T02:59:25.823Z,99.99
2017-03-26T03:00:37.018Z,98.78
2017-03-26T03:01:48.251Z,99.99
2017-03-26T03:02:59.249Z,98.78
2017-03-26T03:04:10.248Z,98.11
2017-03-26T03:05:21.244Z,99.35
2017-03-26T03:06:32.434Z,99.99
2017-03-26T03:07:43.418Z,99.99
2017-03-26T03:08:54.411Z,96.88
2017-03-26T03:10:05.410Z,97.74
2017-03-26T03:11:16.640Z,98.02
2017-03-26T03:12:27.682Z,99.99
2017-03-26T03:13:38.683Z,99.99
2017-03-26T03:14:49.670Z,98.02
2017-03-26T03:16:00.660Z,99.16
2017-03-26T03:17:11.644Z,99.54
2017-03-26T03:18:22.643Z,99.99
2017-03-26T03:19:33.629Z,99.99
2017-03-26T03:20:44.628Z,99.99
2017-03-26T03:21:55.613Z,99.99
2017-03-26T03:23:06.804Z,99.99
2017-03-26T03:24:17.997Z,99.99
2017-03-26T03:25:29.035Z,97.83
2017-03-26T03:26:40.057Z,99.99
2017-03-26T03:27:51.451Z,99.35
2017-03-26T03:29:02.484Z,96.22
2017-03-26T03:30:13.671Z,97.74
2017-03-26T03:31:24.855Z,98.02
2017-03-26T03:32:35.846Z,97.55
2017-03-26T03:33:46.831Z,99.35
2017-03-26T03:34:57.827Z,97.17
2017-03-26T03:36:08.813Z,96.12
2017-03-26T03:37:19.802Z,94.03
2017-03-26T03:38:30.848Z,95.07
2017-03-26T03:39:41.839Z,98.68
2017-03-26T03:40:53.048Z,97.92
2017-03-26T03:42:04.039Z,99.99
2017-03-26T03:43:15.025Z,97.45
2017-03-26T03:44:26.028Z,98.4
2017-03-26T03:45:37.012Z,99.16
2017-03-26T03:46:48.202Z,96.69
2017-03-26T03:47:59.197Z,95.65
2017-03-26T03:49:10.247Z,99.99
2017-03-26T03:50:21.244Z,96.03
2017-03-26T03:51:32.225Z,98.78
2017-03-26T03:52:43.207Z,94.13
2017-03-26T03:53:54.203Z,96.03
2017-03-26T03:55:05.405Z,98.49
2017-03-26T03:56:16.388Z,96.5
2017-03-26T03:57:27.380Z,96.22
2017-03-26T03:58:38.371Z,97.83
2017-03-26T03:59:49.409Z,97.55
2017-03-26T04:01:00.811Z,97.64
2017-03-26T04:02:12.001Z,96.59
2017-03-26T04:03:22.989Z,98.87
2017-03-26T04:04:33.979Z,95.84
2017-03-26T04:05:44.978Z,97.36
2017-03-26T04:06:55.970Z,93.94
2017-03-26T04:08:06.953Z,95.17
2017-03-26T04:09:17.995Z,96.5
2017-03-26T04:10:28.987Z,97.64
2017-03-26T04:11:39.974Z,94.03
2017-03-26T04:12:50.960Z,94.32
2017-03-26T04:14:01.954Z,94.23
2017-03-26T04:15:13.146Z,95.46
2017-03-26T04:16:24.184Z,96.03
2017-03-26T04:17:35.179Z,97.64
2017-03-26T04:18:46.183Z,94.23
2017-03-26T04:19:57.176Z,93.27
2017-03-26T04:21:08.205Z,94.89
2017-03-26T04:22:19.398Z,95.55
2017-03-26T04:23:30.387Z,98.68
2017-03-26T04:24:41.374Z,94.03
2017-03-26T04:25:52.608Z,96.97
2017-03-26T04:27:03.818Z,93.27
2017-03-26T04:28:14.855Z,94.32
2017-03-26T04:29:26.254Z,93.37
2017-03-26T04:30:37.236Z,95.74
2017-03-26T04:31:48.450Z,93.27
2017-03-26T04:32:59.448Z,96.22
2017-03-26T04:34:10.440Z,94.23
2017-03-26T04:35:21.429Z,94.32
2017-03-26T04:36:32.472Z,95.46
2017-03-26T04:37:43.875Z,93.37
2017-03-26T04:38:55.072Z,95.74
2017-03-26T04:40:06.054Z,94.32
2017-03-26T04:41:17.053Z,95.65
2017-03-26T04:42:28.052Z,95.17
2017-03-26T04:43:39.049Z,97.83
2017-03-26T04:44:50.043Z,99.99
2017-03-26T04:46:01.036Z,95.17
2017-03-26T04:47:12.125Z,94.89
2017-03-26T04:48:23.318Z,95.46
2017-03-26T04:49:34.323Z,99.99
2017-03-26T04:50:45.365Z,99.99
2017-03-26T04:51:56.352Z,99.99
2017-03-26T04:53:07.543Z,97.64
2017-03-26T04:54:18.538Z,96.97
2017-03-26T04:55:29.724Z,98.78
2017-03-26T04:56:40.706Z,97.45
2017-03-26T04:57:51.897Z,97.26
2017-03-26T04:59:02.888Z,99.99
2017-03-26T05:00:14.083Z,96.88
2017-03-26T05:01:25.081Z,98.11
2017-03-26T05:02:36.065Z,95.27
2017-03-26T05:03:47.267Z,95.03
2017-03-26T05:04:58.456Z,95.6
2017-03-26T05:06:09.441Z,95.84
2017-03-26T05:07:20.424Z,98.49
2017-03-26T05:08:31.663Z,95.27
2017-03-26T05:09:42.674Z,95.17
2017-03-26T05:10:53.666Z,99.99
2017-03-26T05:12:04.693Z,99.99
2017-03-26T05:13:15.700Z,99.99
2017-03-26T05:14:26.882Z,99.99
2017-03-26T05:15:37.870Z,99.99
2017-03-26T05:16:48.858Z,99.99
2017-03-26T05:18:00.049Z,99.99
2017-03-26T05:19:11.106Z,98.16
2017-03-26T05:20:22.100Z,94.6
2017-03-26T05:21:33.102Z,98.45
2017-03-26T05:22:44.096Z,97.74
2017-03-26T05:23:55.298Z,98.16
2017-03-26T05:25:06.292Z,96.83
2017-03-26T05:26:17.281Z,96.41
2017-03-26T05:27:28.279Z,96.5
2017-03-26T05:28:39.326Z,97.83
2017-03-26T05:29:50.568Z,95.89
2017-03-26T05:31:01.602Z,95.6
2017-03-26T05:32:12.788Z,97.45
2017-03-26T05:33:23.971Z,98.3
2017-03-26T05:34:34.969Z,98.11
2017-03-26T05:35:45.957Z,96.69
2017-03-26T05:36:56.943Z,96.74
2017-03-26T05:38:08.133Z,98.3
2017-03-26T05:39:19.124Z,99.99
2017-03-26T05:40:30.111Z,96.26
2017-03-26T05:41:41.097Z,98.78
2017-03-26T05:42:52.080Z,96.88
2017-03-26T05:44:03.062Z,95.12
2017-03-26T05:45:14.312Z,99.54
2017-03-26T05:46:25.352Z,97.5
2017-03-26T05:47:36.334Z,99.35
2017-03-26T05:48:47.531Z,96.93
2017-03-26T05:49:58.527Z,99.99
2017-03-26T05:51:09.533Z,97.07
2017-03-26T05:52:20.725Z,98.92
2017-03-26T05:53:31.720Z,97.64
2017-03-26T05:54:42.702Z,99.68
2017-03-26T05:55:53.741Z,99.99
2017-03-26T05:57:04.728Z,98.11
2017-03-26T05:58:15.724Z,97.17
2017-03-26T05:59:26.729Z,99.99
2017-03-26T06:00:37.710Z,97.69
2017-03-26T06:01:48.704Z,99.99
2017-03-26T06:02:59.891Z,97.97
2017-03-26T06:04:10.886Z,99.99
2017-03-26T06:05:22.077Z,99.99
2017-03-26T06:06:33.056Z,99.77
2017-03-26T06:07:44.252Z,99.99
2017-03-26T06:08:55.253Z,99.99
2017-03-26T06:10:06.243Z,99.99
2017-03-26T06:11:17.492Z,99.99
2017-03-26T06:12:28.677Z,99.99
2017-03-26T06:13:39.664Z,99.99
2017-03-26T06:14:50.652Z,99.99
2017-03-26T06:16:01.853Z,99.99
2017-03-26T06:17:12.844Z,98.73
2017-03-26T06:18:23.841Z,99.99
2017-03-26T06:19:34.847Z,99.99
2017-03-26T06:20:45.843Z,99.99
2017-03-26T06:21:56.828Z,99.99
2017-03-26T06:23:07.835Z,99.99
2017-03-26T06:24:18.821Z,99.99
2017-03-26T06:25:29.809Z,99.99
2017-03-26T06:26:41.001Z,99.99
2017-03-26T06:27:52.216Z,99.99
2017-03-26T06:29:03.409Z,99.99
2017-03-26T06:30:14.409Z,99.99
2017-03-26T06:31:25.403Z,99.99
2017-03-26T06:32:36.604Z,99.99
2017-03-26T06:33:47.599Z,99.99
2017-03-26T06:34:58.800Z,99.99
2017-03-26T06:36:09.795Z,99.99
2017-03-26T06:37:20.789Z,99.99
2017-03-26T06:38:31.777Z,99.99
2017-03-26T06:39:42.775Z,99.99
2017-03-26T06:40:53.772Z,99.99
2017-03-26T06:42:04.765Z,99.99
2017-03-26T06:43:16.008Z,99.99
2017-03-26T06:44:26.998Z,99.99
2017-03-26T06:45:38.000Z,99.99
2017-03-26T06:46:49.189Z,99.99
2017-03-26T06:48:00.184Z,99.99
2017-03-26T06:49:11.176Z,99.99
2017-03-26T06:50:22.161Z,99.99
2017-03-26T06:51:33.158Z,99.99
2017-03-26T06:52:44.198Z,99.99
2017-03-26T06:53:55.202Z,99.99
2017-03-26T06:55:06.197Z,99.99
2017-03-26T06:56:17.594Z,99.99
2017-03-26T06:57:28.588Z,99.99
2017-03-26T06:58:39.597Z,99.99
2017-03-26T06:59:50.594Z,99.99
2017-03-26T07:01:01.587Z,99.99
2017-03-26T07:02:12.579Z,99.99
2017-03-26T07:03:23.576Z,99.99
2017-03-26T07:04:34.590Z,99.99
2017-03-26T07:05:45.590Z,99.99
2017-03-26T07:06:56.592Z,99.99
2017-03-26T07:08:07.611Z,99.99
2017-03-26T07:09:18.607Z,99.99
2017-03-26T07:10:29.621Z,99.99
2017-03-26T07:11:40.626Z,99.99
2017-03-26T07:12:51.642Z,98.08
2017-03-26T07:14:02.844Z,99.22
2017-03-26T07:15:13.847Z,97.99
2017-03-26T07:16:24.902Z,96.27
2017-03-26T07:17:35.898Z,96.8
2017-03-26T07:18:46.902Z,97.27
2017-03-26T07:19:57.906Z,97.37
2017-03-26T07:21:09.107Z,96.89
2017-03-26T07:22:20.108Z,95.94
2017-03-26T07:23:31.108Z,89.31
2017-03-26T07:24:42.764Z,91.5
2017-03-26T07:25:53.959Z,92.83
2017-03-26T07:27:04.960Z,93.36
2017-03-26T07:28:15.959Z,92.03
2017-03-26T07:29:26.958Z,94.89
2017-03-26T07:30:38.159Z,94.51
2017-03-26T07:31:49.160Z,94.51
2017-03-26T07:33:00.163Z,93.08
2017-03-26T07:34:11.165Z,94.22
2017-03-26T07:35:22.179Z,95.27
2017-03-26T07:36:33.196Z,92.32
2017-03-26T07:37:44.399Z,87.97
2017-03-26T07:38:55.454Z,87.49
2017-03-26T07:40:06.453Z,86.63
2017-03-26T07:41:17.489Z,87.35
2017-03-26T07:42:28.484Z,90.21
2017-03-26T07:43:39.486Z,90.78
2017-03-26T07:44:50.500Z,91.88
2017-03-26T07:46:01.508Z,91.12
2017-03-26T07:47:12.516Z,88.97
2017-03-26T07:48:23.527Z,89.25
2017-03-26T07:49:34.595Z,87.35
2017-03-26T07:50:45.605Z,88.3
2017-03-26T07:51:56.612Z,88.59
2017-03-26T07:53:07.613Z,88.87
2017-03-26T07:54:18.825Z,88.87
2017-03-26T07:55:29.835Z,89.25
2017-03-26T07:56:41.044Z,89.35
2017-03-26T07:57:52.047Z,90.21
2017-03-26T07:59:03.253Z,90.02
2017-03-26T08:00:14.283Z,90.21
2017-03-26T08:01:25.284Z,90.88
2017-03-26T08:02:36.486Z,88.4
2017-03-26T08:03:47.705Z,87.39
2017-03-26T08:04:58.918Z,85.86
2017-03-26T08:06:09.918Z,85.29
2017-03-26T08:07:21.127Z,85.29
2017-03-26T08:08:32.137Z,83.76
2017-03-26T08:09:43.187Z,83.86
2017-03-26T08:10:54.203Z,81.99
2017-03-26T08:12:05.621Z,80.36
2017-03-26T08:13:16.630Z,79.88
2017-03-26T08:14:27.649Z,80.07
2017-03-26T08:15:38.654Z,80.55
2017-03-26T08:16:49.655Z,80.4
2017-03-26T08:18:00.669Z,80.36
2017-03-26T08:19:11.684Z,80.27
2017-03-26T08:20:22.690Z,79.16
2017-03-26T08:21:33.894Z,77.92
2017-03-26T08:22:44.893Z,77.15
2017-03-26T08:23:55.900Z,76.96
2017-03-26T08:25:06.919Z,77.34
2017-03-26T08:26:17.920Z,76.86
2017-03-26T08:27:28.919Z,75.81
2017-03-26T08:28:39.974Z,78.11
2017-03-26T08:29:51.183Z,78.45
2017-03-26T08:31:02.436Z,80.36
2017-03-26T08:32:13.435Z,80.17
2017-03-26T08:33:24.443Z,81.7
2017-03-26T08:34:35.439Z,82.61
2017-03-26T08:35:46.497Z,81.41
2017-03-26T08:36:57.499Z,80.55
2017-03-26T08:38:08.699Z,78.97
2017-03-26T08:39:19.707Z,78.68
2017-03-26T08:40:31.185Z,77.82
2017-03-26T08:41:42.186Z,77.34
2017-03-26T08:42:53.398Z,75.56
2017-03-26T08:44:04.418Z,76.52
2017-03-26T08:45:15.429Z,75.56
2017-03-26T08:46:26.436Z,74.61
2017-03-26T08:47:37.450Z,75.09
2017-03-26T08:48:48.453Z,74.32
2017-03-26T08:49:59.457Z,74.32
2017-03-26T08:51:10.676Z,74.22
2017-03-26T08:52:21.888Z,73.17
2017-03-26T08:53:32.891Z,73.3
2017-03-26T08:54:44.102Z,72.25
2017-03-26T08:55:55.170Z,73.11
2017-03-26T08:57:06.175Z,72.06
2017-03-26T08:58:17.201Z,73.4
2017-03-26T08:59:28.218Z,73.69
2017-03-26T09:00:39.269Z,74.22
2017-03-26T09:01:50.319Z,75.34
2017-03-26T09:03:01.340Z,75.81
2017-03-26T09:04:12.356Z,74.13
2017-03-26T09:05:23.364Z,74.13
2017-03-26T09:06:34.368Z,73.65
2017-03-26T09:07:45.381Z,73.75
2017-03-26T09:08:56.594Z,73.75
2017-03-26T09:10:07.595Z,73.75
2017-03-26T09:11:18.604Z,72.06
2017-03-26T09:12:29.604Z,70.34
2017-03-26T09:13:40.627Z,70.37
2017-03-26T09:14:51.659Z,67.98
2017-03-26T09:16:02.666Z,68.46
2017-03-26T09:17:13.673Z,69.19
2017-03-26T09:18:24.679Z,70.43
2017-03-26T09:19:35.690Z,70.62
2017-03-26T09:20:47.318Z,69.32
2017-03-26T09:21:58.370Z,69.32
2017-03-26T09:23:09.581Z,68.55
2017-03-26T09:24:20.605Z,69.23
2017-03-26T09:25:31.819Z,69.6
2017-03-26T09:26:43.043Z,69.42
2017-03-26T09:27:54.051Z,68.42
2017-03-26T09:29:05.074Z,68.52
2017-03-26T09:30:16.098Z,68.62
2017-03-26T09:31:27.109Z,70.15
2017-03-26T09:32:38.322Z,69.25
2017-03-26T09:33:49.349Z,68.68
2017-03-26T09:35:00.370Z,68.58
2017-03-26T09:36:11.388Z,68.96
2017-03-26T09:37:22.397Z,69.48
2017-03-26T09:38:33.853Z,70.15
2017-03-26T09:39:44.907Z,68.23
2017-03-26T09:40:55.914Z,67.02
2017-03-26T09:42:06.943Z,66.74
2017-03-26T09:43:17.953Z,67.47
2017-03-26T09:44:29.045Z,68.52
2017-03-26T09:45:40.049Z,68.87
2017-03-26T09:46:51.257Z,70.11
2017-03-26T09:48:02.476Z,69.15
2017-03-26T09:49:13.484Z,70.5
2017-03-26T09:50:24.489Z,70.87
2017-03-26T09:51:35.693Z,70.05
2017-03-26T09:52:46.899Z,69.09
2017-03-26T09:53:58.168Z,67.02
2017-03-26T09:55:09.181Z,64.76
2017-03-26T09:56:20.191Z,64.95
2017-03-26T09:57:31.212Z,65.55
2017-03-26T09:58:42.227Z,66.22
2017-03-26T09:59:53.244Z,64.89
2017-03-26T10:01:04.266Z,64.22
2017-03-26T10:02:15.272Z,64.79
2017-03-26T10:03:26.270Z,65.17
2017-03-26T10:04:37.275Z,64.05
2017-03-26T10:05:48.492Z,60.7
2017-03-26T10:06:59.511Z,60.7
2017-03-26T10:08:10.576Z,62.52
2017-03-26T10:09:21.596Z,61.66
2017-03-26T10:10:32.608Z,62.2
2017-03-26T10:11:43.608Z,62.49
2017-03-26T10:12:54.623Z,63.54
2017-03-26T10:14:05.643Z,64.4
2017-03-26T10:15:16.656Z,61.37
2017-03-26T10:16:27.674Z,59.58
2017-03-26T10:17:38.746Z,59.38
2017-03-26T10:18:49.759Z,60.44
2017-03-26T10:20:00.775Z,59.12
2017-03-26T10:21:11.789Z,59.99
2017-03-26T10:22:22.794Z,59.41
2017-03-26T10:23:33.807Z,57.4
2017-03-26T10:24:45.079Z,57.5
2017-03-26T10:25:56.095Z,54.52
2017-03-26T10:27:07.105Z,57.28
2017-03-26T10:28:18.125Z,56.31
2017-03-26T10:29:29.135Z,57.46
2017-03-26T10:30:40.148Z,56.41
2017-03-26T10:31:51.157Z,57.75
2017-03-26T10:33:02.191Z,58.23
2017-03-26T10:34:13.214Z,57.37
2017-03-26T10:35:24.456Z,56.6
2017-03-26T10:36:35.469Z,58.33
2017-03-26T10:37:46.494Z,57.37
2017-03-26T10:38:57.515Z,55.71
2017-03-26T10:40:08.779Z,57.15
2017-03-26T10:41:19.999Z,58.2
2017-03-26T10:42:31.020Z,58.69
2017-03-26T10:43:42.032Z,59.04
2017-03-26T10:44:53.054Z,58.17
2017-03-26T10:46:04.275Z,57.41
2017-03-26T10:47:15.290Z,55.21
2017-03-26T10:48:26.702Z,54.66
2017-03-26T10:49:37.837Z,55.3
2017-03-26T10:50:48.851Z,55.68
2017-03-26T10:51:59.862Z,56.07
2017-03-26T10:53:10.913Z,56.54
2017-03-26T10:54:21.933Z,56.19
2017-03-26T10:55:32.945Z,54.78
2017-03-26T10:56:43.953Z,55.35
2017-03-26T10:57:54.969Z,58.49
2017-03-26T10:59:05.981Z,57.18
2017-03-26T11:00:16.999Z,56.22
2017-03-26T11:01:28.008Z,58.04
2017-03-26T11:02:39.030Z,56.6
2017-03-26T11:03:50.045Z,53.24
2017-03-26T11:05:01.259Z,54.13
2017-03-26T11:06:12.544Z,53.94
2017-03-26T11:07:23.559Z,53.08
2017-03-26T11:08:34.776Z,53.27
2017-03-26T11:09:45.845Z,53.56
2017-03-26T11:10:56.856Z,53.85
2017-03-26T11:12:07.877Z,51.64
2017-03-26T11:13:18.887Z,52.38
2017-03-26T11:14:29.932Z,52.95
2017-03-26T11:15:40.994Z,54.39
2017-03-26T11:16:52.255Z,53.15
2017-03-26T11:18:03.276Z,53.53
2017-03-26T11:19:14.302Z,53.08
2017-03-26T11:20:25.355Z,55.83
2017-03-26T11:21:36.370Z,56.05
2017-03-26T11:22:47.379Z,54.9
2017-03-26T11:23:58.617Z,53.2
2017-03-26T11:25:09.632Z,49.74
2017-03-26T11:26:20.897Z,51.47
2017-03-26T11:27:31.902Z,52.24
2017-03-26T11:28:42.918Z,53.97
2017-03-26T11:29:53.944Z,52.14
2017-03-26T11:31:04.961Z,53.39
2017-03-26T11:32:15.969Z,52.81
2017-03-26T11:33:26.984Z,54.45
2017-03-26T11:34:37.989Z,56.05
2017-03-26T11:35:49.011Z,56.6
2017-03-26T11:37:00.266Z,53.66
2017-03-26T11:38:11.286Z,52.89
2017-03-26T11:39:22.291Z,53.24
2017-03-26T11:40:33.503Z,54.97
2017-03-26T11:41:44.717Z,54.78
2017-03-26T11:42:55.922Z,55.57
2017-03-26T11:44:06.926Z,54.9
2017-03-26T11:45:17.950Z,52.79
2017-03-26T11:46:28.966Z,53.82
2017-03-26T11:47:40.179Z,54.01
2017-03-26T11:48:51.190Z,56.22
2017-03-26T11:50:02.207Z,58.52
2017-03-26T11:51:13.417Z,56.22
2017-03-26T11:52:24.425Z,55.29
2017-03-26T11:53:35.492Z,52.86
2017-03-26T11:54:46.507Z,54.39
2017-03-26T11:55:57.526Z,53.24
2017-03-26T11:57:08.733Z,53.63
2017-03-26T11:58:19.743Z,53.53
2017-03-26T11:59:31.165Z,53.94
2017-03-26T12:00:42.182Z,53.27
2017-03-26T12:01:53.186Z,55.38
2017-03-26T12:03:04.244Z,54.16
2017-03-26T12:04:15.249Z,53.68
2017-03-26T12:05:26.259Z,54.42
2017-03-26T12:06:37.259Z,54.42
2017-03-26T12:07:48.274Z,54.68
2017-03-26T12:08:59.484Z,54.68
2017-03-26T12:10:10.486Z,54.71
2017-03-26T12:11:21.488Z,54.61
2017-03-26T12:12:32.507Z,54.35
2017-03-26T12:13:43.574Z,54.55
2017-03-26T12:14:54.591Z,53.11
2017-03-26T12:16:05.602Z,54.06
2017-03-26T12:17:16.608Z,54.93
2017-03-26T12:18:27.616Z,54.64
2017-03-26T12:19:38.620Z,51.88
2017-03-26T12:20:49.624Z,50.15
2017-03-26T12:22:00.832Z,50.63
2017-03-26T12:23:11.845Z,51.59
2017-03-26T12:24:23.120Z,51.69
2017-03-26T12:25:34.130Z,50.7
2017-03-26T12:26:45.138Z,49.93
2017-03-26T12:27:56.354Z,51.69
2017-03-26T12:29:07.365Z,53.39
2017-03-26T12:30:18.370Z,53.11
2017-03-26T12:31:29.379Z,52.17
2017-03-26T12:32:40.384Z,53.11
2017-03-26T12:33:51.394Z,54.06
2017-03-26T12:35:02.607Z,53.58
2017-03-26T12:36:13.857Z,53.8
2017-03-26T12:37:24.857Z,52.26
2017-03-26T12:38:35.876Z,50.92
2017-03-26T12:39:46.896Z,52.08
2017-03-26T12:40:57.945Z,54.64
2017-03-26T12:42:09.147Z,53.32
2017-03-26T12:43:20.166Z,51.79
2017-03-26T12:44:31.403Z,51.76
2017-03-26T12:45:42.456Z,51.47
2017-03-26T12:46:53.453Z,52.22
2017-03-26T12:48:04.665Z,56.34
2017-03-26T12:49:15.671Z,58.55
2017-03-26T12:50:26.949Z,54.71
2017-03-26T12:51:37.969Z,53.11
2017-03-26T12:52:48.974Z,55.19
2017-03-26T12:53:59.979Z,53.78
2017-03-26T12:55:11.188Z,57.01
2017-03-26T12:56:22.639Z,55
2017-03-26T12:57:33.632Z,53.39
2017-03-26T12:58:44.644Z,53.08
2017-03-26T12:59:55.648Z,52.5
2017-03-26T13:01:06.663Z,51.81
2017-03-26T13:02:17.667Z,50.94
2017-03-26T13:03:28.662Z,52.48
2017-03-26T13:04:39.673Z,52.76
2017-03-26T13:05:50.676Z,55.45
2017-03-26T13:07:01.935Z,53.15
2017-03-26T13:08:13.136Z,53.72
2017-03-26T13:09:24.139Z,53.63
2017-03-26T13:10:35.147Z,53.05
2017-03-26T13:11:46.352Z,55.35
2017-03-26T13:12:57.352Z,55.26
2017-03-26T13:14:08.365Z,53.53
2017-03-26T13:15:19.368Z,53.05
2017-03-26T13:16:30.371Z,52.38
2017-03-26T13:17:41.386Z,54.17
2017-03-26T13:18:52.394Z,53.12
2017-03-26T13:20:03.617Z,52.52
2017-03-26T13:21:14.623Z,53.28
2017-03-26T13:22:25.622Z,53.55
2017-03-26T13:23:36.634Z,54.41
2017-03-26T13:24:47.886Z,55.08
2017-03-26T13:25:58.888Z,54.7
2017-03-26T13:27:10.151Z,58.24
2017-03-26T13:28:21.163Z,54.79
2017-03-26T13:29:32.160Z,55.27
2017-03-26T13:30:43.177Z,55.94
2017-03-26T13:31:54.181Z,55.75
2017-03-26T13:33:05.183Z,58.24
2017-03-26T13:34:16.641Z,56.81
2017-03-26T13:35:27.663Z,58.53
2017-03-26T13:36:38.867Z,57.19
2017-03-26T13:37:50.064Z,59.2
2017-03-26T13:39:01.090Z,61.21
2017-03-26T13:40:12.092Z,61.82
2017-03-26T13:41:23.100Z,62.39
2017-03-26T13:42:34.100Z,61.43
2017-03-26T13:43:45.109Z,60.38
2017-03-26T13:44:56.416Z,59.06
2017-03-26T13:46:07.624Z,57.89
2017-03-26T13:47:18.625Z,58.08
2017-03-26T13:48:29.634Z,59.71
2017-03-26T13:49:40.644Z,62.36
2017-03-26T13:50:51.640Z,59.87
2017-03-26T13:52:03.032Z,58.24
2017-03-26T13:53:14.248Z,58.24
2017-03-26T13:54:25.254Z,57.57
2017-03-26T13:55:36.498Z,58.31
2017-03-26T13:56:47.493Z,58.91
2017-03-26T13:57:58.497Z,59.75
2017-03-26T13:59:09.506Z,61.21
2017-03-26T14:00:20.505Z,64.95
2017-03-26T14:01:31.503Z,60.93
2017-03-26T14:02:42.906Z,60.16
2017-03-26T14:03:54.121Z,58.44
2017-03-26T14:05:05.139Z,58.72
2017-03-26T14:06:16.334Z,58.81
2017-03-26T14:07:27.580Z,57.86
2017-03-26T14:08:38.594Z,55.63
2017-03-26T14:09:49.599Z,56.01
2017-03-26T14:11:00.601Z,57.45
2017-03-26T14:12:11.612Z,58.5
2017-03-26T14:13:22.616Z,59.75
2017-03-26T14:14:33.622Z,57.92
2017-03-26T14:15:44.619Z,55.91
2017-03-26T14:16:55.872Z,55.73
2017-03-26T14:18:06.890Z,53.52
2017-03-26T14:19:17.900Z,54.1
2017-03-26T14:20:28.900Z,53.71
2017-03-26T14:21:39.938Z,53.71
2017-03-26T14:22:50.935Z,55.73
2017-03-26T14:24:01.943Z,56.65
2017-03-26T14:25:12.965Z,56.56
2017-03-26T14:26:23.965Z,57.23
2017-03-26T14:27:35.211Z,58.56
2017-03-26T14:28:46.212Z,59.2
2017-03-26T14:29:57.224Z,59.78
2017-03-26T14:31:08.224Z,58.86
2017-03-26T14:32:19.427Z,58.66
2017-03-26T14:33:30.414Z,60.48
2017-03-26T14:34:41.420Z,60.16
2017-03-26T14:35:52.425Z,60.48
2017-03-26T14:37:03.418Z,61.72
2017-03-26T14:38:14.665Z,61.34
2017-03-26T14:39:25.677Z,61.54
2017-03-26T14:40:36.679Z,61.34
2017-03-26T14:41:47.677Z,61.44
2017-03-26T14:42:58.891Z,63.26
2017-03-26T14:44:09.895Z,62.3
2017-03-26T14:45:20.889Z,60.48
2017-03-26T14:46:31.883Z,60.29
2017-03-26T14:47:42.883Z,61.63
2017-03-26T14:48:53.895Z,61.15
2017-03-26T14:50:05.150Z,61.25
2017-03-26T14:51:16.756Z,62.68
2017-03-26T14:52:27.751Z,64.12
2017-03-26T14:53:38.795Z,61.72
2017-03-26T14:54:49.812Z,61.44
2017-03-26T14:56:00.870Z,62.2
2017-03-26T14:57:11.887Z,62.2
2017-03-26T14:58:22.887Z,61.44
2017-03-26T14:59:34.132Z,61.44
2017-03-26T15:00:45.132Z,61.15
2017-03-26T15:01:56.121Z,61.72
2017-03-26T15:03:07.114Z,61.82
2017-03-26T15:04:18.118Z,63.35
2017-03-26T15:05:29.166Z,61.63
2017-03-26T15:06:40.151Z,61.54
2017-03-26T15:07:51.144Z,62.3
2017-03-26T15:09:02.148Z,62.77
2017-03-26T15:10:13.398Z,63.16
2017-03-26T15:11:24.390Z,62.4
2017-03-26T15:12:35.384Z,62.17
2017-03-26T15:13:46.392Z,63.03
2017-03-26T15:14:57.409Z,62.37
2017-03-26T15:16:08.436Z,64.09
2017-03-26T15:17:19.487Z,64.18